createdAt,value
2017-12-03T18:58:55.912Z,78.60
2017-12-03T19:03:39.988Z,79.20
2017-12-03T19:08:24.848Z,79.40
2017-12-03T19:13:08.911Z,79.40
2017-12-03T19:17:53.784Z,79.90
2017-12-03T19:22:38.024Z,81.10
2017-12-03T19:27:23.230Z,82.60
2017-12-03T19:32:07.348Z,83.90
2017-12-03T19:36:51.356Z,84.90
2017-12-03T19:41:35.531Z,85.00
2017-12-03T19:46:19.623Z,85.20
2017-12-03T19:51:07.575Z,85.20
2017-12-03T19:55:51.733Z,85.40
2017-12-03T20:00:35.790Z,85.30
2017-12-03T20:05:19.997Z,85.20
2017-12-03T20:10:09.177Z,85.80
2017-12-03T20:14:54.132Z,85.60
2017-12-03T20:19:38.239Z,85.50
2017-12-03T20:24:22.318Z,85.80
2017-12-03T20:29:06.460Z,85.10
2017-12-03T20:33:50.574Z,84.30
2017-12-03T20:38:34.760Z,84.50
2017-12-03T20:43:19.767Z,85.80
2017-12-03T20:48:08.157Z,85.60
2017-12-03T20:52:52.361Z,86.10
2017-12-03T20:57:36.869Z,86.30
2017-12-03T21:02:21.004Z,86.70
2017-12-03T21:07:06.721Z,86.80
2017-12-03T21:11:50.858Z,86.80
2017-12-03T21:16:34.989Z,86.60
2017-12-03T21:21:19.046Z,86.90
2017-12-03T21:26:07.700Z,87.20
2017-12-03T21:30:51.763Z,87.20
2017-12-03T21:35:35.832Z,86.90
2017-12-03T21:40:19.914Z,86.80
2017-12-03T21:45:08.975Z,87.20
2017-12-03T21:49:53.456Z,87.30
2017-12-03T21:54:38.326Z,88.40
2017-12-03T21:59:28.486Z,88.30
2017-12-03T22:04:12.561Z,87.40
2017-12-03T22:08:56.667Z,86.90
2017-12-03T22:13:40.703Z,87.40
2017-12-03T22:18:25.004Z,87.10
2017-12-03T22:23:09.063Z,87.40
2017-12-03T22:27:53.121Z,87.40
2017-12-03T22:32:37.170Z,88.00
2017-12-03T22:37:22.761Z,89.80
2017-12-03T22:42:07.538Z,90.20
2017-12-03T22:46:51.608Z,90.10
2017-12-03T22:51:35.670Z,90.30
2017-12-03T22:56:20.543Z,90.70
2017-12-03T23:01:07.866Z,90.70
2017-12-03T23:05:51.916Z,90.60
2017-12-03T23:10:35.978Z,90.90
2017-12-03T23:15:20.090Z,90.60
2017-12-03T23:20:07.186Z,90.70
2017-12-03T23:24:51.278Z,90.70
2017-12-03T23:29:35.508Z,90.70
2017-12-03T23:34:19.523Z,90.60
2017-12-03T23:39:07.544Z,90.20
2017-12-03T23:43:51.584Z,90.30
2017-12-03T23:48:38.113Z,90.00
2017-12-03T23:53:23.065Z,90.00
2017-12-03T23:58:07.208Z,90.00
